Terminal Aerodrome Forecast
Issued by NWS

Home | Current Version | Previous Version | Text Only | Print | Product List | Glossary On
Versions: 1 2 3 4 5 6 7 8 9 10 11 12 13
000
FTUS45 KREV 260200 AAA
TAFMMH
TAF AMD
KMMH 260203Z 2602/2624 10010KT P6SM SKC
     FM260400 VRB03KT P6SM SKC
     FM262000 13008KT P6SM SCT140 BKN180
      AMD NOT SKED 2602/2614=

USA.gov is the U.S. government's official web portal to all federal, state and local government web resources and services.